Maybell, Colorado
Current Conditions -  °F | °C
As of 5:53 AM on Saturday 25 Oct 2014 (Local Time) from KCAG Reporting Station
Clear Clear  
Wind Chill: 27°   Ceiling: Unl
Heat Index: 27°   Visibility: 10mi
Dew Point: 22°   Wind: 3mph
Humidity: 81%   Direction: 230°SW
Pressure: 30.32"   Gusts: NA
Location:  40.52°N, 108.09°W
Report Text: KCAG 251153Z AUTO 23003KT 10SM CLR M03/M06 A3032 RMK AO2 SLP250 T10281056 10033 21033 55002
Loading
Personal Weather Stations






























Interactive Weather Map
Tropical Storm Tracking
New forecast layout! Learn more

10-Day Weather Forecast

Advertisements
Track Severe Weather on mobile